Time;durP1;ratioP1;P1;durP2;ratioP2;P2;SDS_P1;SDS_P2;PMS_P1;PMS_P2;Temp;Humidity;BMP_temperature;BMP_pressure;BME280_temperature;BME280_humidity;BME280_pressure;Samples;Min_cycle;Max_cycle;Signal;HPM_P1;HPM_P2
2022/05/11 00:00:39;;;;;;;1.10;1.00;;;22.00;54.30;;;;;;4935750;29;20028;-75
2022/05/11 00:03:05;;;;;;;1.52;1.05;;;22.00;54.30;;;;;;4934583;29;20031;-75
2022/05/11 00:05:36;;;;;;;1.40;1.10;;;21.90;54.30;;;;;;4935724;29;20034;-76
2022/05/11 00:08:03;;;;;;;2.05;1.10;;;21.90;54.40;;;;;;4935300;29;20456;-75
2022/05/11 00:10:30;;;;;;;1.10;1.00;;;21.90;54.40;;;;;;4950748;29;20038;-75
2022/05/11 00:12:57;;;;;;;1.65;1.23;;;21.90;54.40;;;;;;4935765;29;20035;-75
2022/05/11 00:15:24;;;;;;;1.42;1.20;;;21.90;54.40;;;;;;4918860;29;20062;-75
2022/05/11 00:17:51;;;;;;;1.55;1.08;;;21.80;54.40;;;;;;4936156;29;20042;-75
2022/05/11 00:20:18;;;;;;;1.48;1.20;;;21.80;54.50;;;;;;4935105;29;20028;-76
2022/05/11 00:22:44;;;;;;;1.65;1.30;;;21.80;54.60;;;;;;4934907;29;20070;-76
2022/05/11 00:25:13;;;;;;;1.10;1.00;;;21.80;54.50;;;;;;4936095;29;20023;-75
2022/05/11 00:27:39;;;;;;;1.20;1.10;;;21.80;54.60;;;;;;4935821;29;20032;-75
2022/05/11 00:30:06;;;;;;;1.48;1.00;;;21.70;54.60;;;;;;4934256;29;20036;-75
2022/05/11 00:32:33;;;;;;;1.25;1.02;;;21.70;54.60;;;;;;4934629;29;20048;-75
2022/05/11 00:34:59;;;;;;;1.58;1.10;;;21.70;54.60;;;;;;4935133;29;20123;-75
2022/05/11 00:37:26;;;;;;;1.10;1.00;;;21.70;54.70;;;;;;4918612;29;20040;-75
2022/05/11 00:39:52;;;;;;;1.15;1.05;;;21.70;54.70;;;;;;4918696;29;20068;-75
2022/05/11 00:42:18;;;;;;;1.05;0.95;;;21.60;54.70;;;;;;4935023;29;20056;-75
2022/05/11 00:44:44;;;;;;;2.10;1.20;;;21.60;54.80;;;;;;4935962;29;20372;-75
2022/05/11 00:47:33;;;;;;;1.20;1.10;;;21.60;54.80;;;;;;4934675;29;20041;-75
2022/05/11 00:50:05;;;;;;;1.52;1.23;;;21.60;54.80;;;;;;4934397;29;20032;-75
2022/05/11 00:52:41;;;;;;;1.92;1.30;;;21.60;54.80;;;;;;4935711;29;20119;-76
2022/05/11 00:55:27;;;;;;;3.05;1.25;;;21.50;54.90;;;;;;4919222;29;20027;-76
2022/05/11 00:58:04;;;;;;;0.95;0.93;;;21.50;55.00;;;;;;4950014;29;20040;-76
2022/05/11 01:00:30;;;;;;;1.20;1.00;;;21.50;54.90;;;;;;4934585;29;20472;-75
2022/05/11 01:03:10;;;;;;;1.10;1.00;;;21.50;55.00;;;;;;4918472;29;20028;-75
2022/05/11 01:05:36;;;;;;;1.85;1.20;;;21.40;55.10;;;;;;4935085;29;20050;-75
2022/05/11 01:08:02;;;;;;;1.50;1.13;;;21.40;55.00;;;;;;4918577;29;20385;-75
2022/05/11 01:10:32;;;;;;;1.40;1.10;;;21.40;55.00;;;;;;4953254;29;20123;-75
2022/05/11 01:13:00;;;;;;;1.75;1.30;;;21.40;55.10;;;;;;4938300;29;20031;-75
2022/05/11 01:15:29;;;;;;;1.25;1.15;;;21.40;55.10;;;;;;4939088;29;20425;-76
2022/05/11 01:17:57;;;;;;;1.45;1.30;;;21.40;55.10;;;;;;4921813;29;20067;-75
2022/05/11 01:20:25;;;;;;;1.33;1.20;;;21.30;55.10;;;;;;4937442;29;20042;-76
2022/05/11 01:23:15;;;;;;;1.67;1.35;;;21.30;55.10;;;;;;4937373;29;20038;-75
2022/05/11 01:25:41;;;;;;;2.83;1.55;;;21.30;55.30;;;;;;4953686;29;20424;-75
2022/05/11 01:28:12;;;;;;;1.33;1.20;;;21.20;55.10;;;;;;4938987;29;20036;-75
2022/05/11 01:30:44;;;;;;;1.63;1.23;;;21.20;55.20;;;;;;4953400;29;20032;-75
2022/05/11 01:33:15;;;;;;;1.60;1.38;;;21.30;55.30;;;;;;4953637;29;20047;-75
2022/05/11 01:36:05;;;;;;;1.52;1.40;;;21.20;55.30;;;;;;4937289;29;20027;-75
2022/05/11 01:38:38;;;;;;;1.65;1.25;;;21.20;55.30;;;;;;4937321;29;20043;-75
2022/05/11 01:41:04;;;;;;;1.88;1.10;;;21.20;55.30;;;;;;4953254;29;20075;-76
2022/05/11 01:43:33;;;;;;;2.13;1.30;;;21.20;55.30;;;;;;4922128;29;20122;-75
2022/05/11 01:45:59;;;;;;;1.75;1.35;;;21.10;55.30;;;;;;4953309;29;20487;-75
2022/05/11 01:48:24;;;;;;;1.52;1.35;;;21.10;55.40;;;;;;4921644;29;20028;-75
2022/05/11 01:50:50;;;;;;;2.35;1.50;;;21.10;55.60;;;;;;4938128;29;20476;-76
2022/05/11 01:53:17;;;;;;;1.60;1.42;;;21.10;55.40;;;;;;4938083;29;20057;-75
2022/05/11 01:55:43;;;;;;;1.58;1.40;;;21.10;55.40;;;;;;4953130;29;20032;-75
2022/05/11 01:58:14;;;;;;;1.92;1.52;;;21.10;56.10;;;;;;4921353;29;20044;-75
2022/05/11 02:00:42;;;;;;;1.70;1.33;;;21.00;55.40;;;;;;4936914;29;20055;-76
2022/05/11 02:03:08;;;;;;;2.47;1.85;;;21.00;55.40;;;;;;4921763;29;20027;-75
2022/05/11 02:08:18;;;;;;;2.45;1.60;;;21.00;55.50;;;;;;4923829;29;20118;-75
2022/05/11 02:10:44;;;;;;;1.40;1.30;;;21.00;55.50;;;;;;4920830;29;20027;-76
2022/05/11 02:13:10;;;;;;;1.50;1.40;;;21.00;55.50;;;;;;4920860;29;20545;-75
2022/05/11 02:15:36;;;;;;;1.65;1.45;;;21.00;55.50;;;;;;4936214;29;20048;-76
2022/05/11 02:18:03;;;;;;;2.33;1.48;;;21.00;55.60;;;;;;4936489;29;20048;-75
2022/05/11 02:20:29;;;;;;;1.80;1.40;;;20.90;55.50;;;;;;4920252;29;20052;-75
2022/05/11 02:22:55;;;;;;;2.38;1.42;;;20.90;55.60;;;;;;4920981;29;20070;-75
2022/05/11 02:25:21;;;;;;;2.45;1.65;;;20.90;55.60;;;;;;4920674;29;20441;-75
2022/05/11 02:27:49;;;;;;;1.77;1.38;;;20.90;56.30;;;;;;4936542;29;20342;-75
2022/05/11 02:30:28;;;;;;;2.35;1.70;;;20.90;55.70;;;;;;4920977;29;20036;-75
2022/05/11 02:32:54;;;;;;;1.90;1.50;;;20.80;55.60;;;;;;4936332;29;20023;-75
2022/05/11 02:35:21;;;;;;;1.92;1.70;;;20.80;55.60;;;;;;4936318;29;20070;-75
2022/05/11 02:37:55;;;;;;;2.03;1.52;;;20.80;55.70;;;;;;4905193;29;20047;-75
2022/05/11 02:40:32;;;;;;;2.28;1.30;;;20.80;55.70;;;;;;4936312;29;20080;-75
2022/05/11 02:43:01;;;;;;;2.20;1.63;;;20.80;55.80;;;;;;4952291;29;20035;-75
2022/05/11 02:45:28;;;;;;;1.50;1.35;;;20.80;55.80;;;;;;4936435;29;20098;-77
2022/05/11 02:47:55;;;;;;;3.53;1.52;;;20.80;55.80;;;;;;4937516;29;20035;-76
2022/05/11 02:50:31;;;;;;;1.77;1.50;;;20.70;55.80;;;;;;4936077;29;20492;-75
2022/05/11 02:52:57;;;;;;;2.00;1.63;;;20.70;55.90;;;;;;4952531;29;20114;-77
2022/05/11 02:55:23;;;;;;;1.88;1.40;;;20.70;55.80;;;;;;4919963;29;20039;-75
2022/05/11 02:57:49;;;;;;;2.22;1.60;;;20.70;55.80;;;;;;4919914;29;20075;-75
2022/05/11 03:00:17;;;;;;;2.05;1.60;;;20.70;55.90;;;;;;4919897;29;20468;-75
2022/05/11 03:02:43;;;;;;;2.28;1.67;;;20.70;55.90;;;;;;4951888;29;20123;-76
2022/05/11 03:05:11;;;;;;;1.67;1.38;;;20.60;55.90;;;;;;4935930;29;20421;-75
2022/05/11 03:07:37;;;;;;;2.45;1.67;;;20.60;55.90;;;;;;4935657;29;20106;-75
2022/05/11 03:10:04;;;;;;;2.45;1.52;;;20.60;55.90;;;;;;4935629;29;20057;-76
2022/05/11 03:12:32;;;;;;;2.00;1.67;;;20.60;55.90;;;;;;4935370;29;20036;-76
2022/05/11 03:14:58;;;;;;;1.83;1.60;;;20.60;55.90;;;;;;4935223;29;20511;-76
2022/05/11 03:17:25;;;;;;;2.30;1.70;;;20.60;55.90;;;;;;4935638;29;20043;-75
2022/05/11 03:19:50;;;;;;;2.38;1.70;;;20.60;55.90;;;;;;4936689;29;20044;-76
2022/05/11 03:22:16;;;;;;;1.83;1.52;;;20.50;55.90;;;;;;4919857;29;20032;-75
2022/05/11 03:24:42;;;;;;;2.58;1.70;;;20.50;55.90;;;;;;4919631;29;20027;-76
2022/05/11 03:27:08;;;;;;;2.00;1.67;;;20.50;56.00;;;;;;4935134;29;20085;-75
2022/05/11 03:29:34;;;;;;;2.33;1.65;;;20.50;56.00;;;;;;4935473;29;20531;-75
2022/05/11 03:34:45;;;;;;;1.92;1.50;;;20.50;55.90;;;;;;4936855;29;20024;-75
2022/05/11 03:37:15;;;;;;;2.60;1.73;;;20.40;55.90;;;;;;4934932;29;20023;-75
2022/05/11 03:39:42;;;;;;;1.58;1.48;;;20.40;55.90;;;;;;4935271;29;20086;-75
2022/05/11 03:42:11;;;;;;;3.35;1.90;;;20.40;55.90;;;;;;4919406;29;20028;-75
2022/05/11 03:44:37;;;;;;;1.90;1.65;;;20.40;56.00;;;;;;4936007;29;20036;-75
2022/05/11 03:47:03;;;;;;;2.25;1.75;;;20.40;56.00;;;;;;4919181;29;20584;-75
2022/05/11 03:49:30;;;;;;;3.90;1.83;;;20.40;56.00;;;;;;4919371;29;20062;-75
2022/05/11 03:51:56;;;;;;;2.85;1.73;;;20.30;56.00;;;;;;4935268;29;20035;-75
2022/05/11 03:54:23;;;;;;;2.45;1.92;;;20.40;56.00;;;;;;4919037;29;20612;-74
2022/05/11 03:56:48;;;;;;;2.58;1.88;;;20.30;56.00;;;;;;4936181;29;20094;-75
2022/05/11 03:59:16;;;;;;;2.35;1.80;;;20.30;56.00;;;;;;4903277;29;20039;-76
2022/05/11 04:01:42;;;;;;;2.53;1.70;;;20.30;56.10;;;;;;4919014;29;20038;-76
2022/05/11 04:04:08;;;;;;;2.70;2.10;;;20.30;56.00;;;;;;4919149;29;20401;-76
2022/05/11 04:06:34;;;;;;;1.92;1.73;;;20.30;56.10;;;;;;4918657;29;20053;-76
2022/05/11 04:09:00;;;;;;;1.73;1.63;;;20.30;56.10;;;;;;4935000;29;20051;-74
2022/05/11 04:11:26;;;;;;;1.88;1.67;;;20.20;56.10;;;;;;4935263;29;20063;-75
2022/05/11 04:13:53;;;;;;;2.78;2.00;;;20.20;56.00;;;;;;4918856;29;20039;-76
2022/05/11 04:16:20;;;;;;;3.10;2.25;;;20.20;56.10;;;;;;4919105;29;20052;-75
2022/05/11 04:18:46;;;;;;;2.45;1.80;;;20.20;56.20;;;;;;4934678;29;20126;-76
2022/05/11 04:21:12;;;;;;;3.03;1.80;;;20.20;56.20;;;;;;4934857;29;20451;-74
2022/05/11 04:23:40;;;;;;;2.65;2.17;;;20.20;56.20;;;;;;4950553;29;20055;-73
2022/05/11 04:26:11;;;;;;;2.33;1.67;;;20.20;56.10;;;;;;4919058;29;20036;-73
2022/05/11 04:28:39;;;;;;;2.92;2.05;;;20.20;56.10;;;;;;4936155;29;20062;-74
2022/05/11 04:31:10;;;;;;;2.15;1.67;;;20.20;56.10;;;;;;4934688;29;20024;-76
2022/05/11 04:33:36;;;;;;;2.30;1.60;;;20.20;56.10;;;;;;4934749;29;20181;-74
2022/05/11 04:36:03;;;;;;;1.70;1.60;;;20.10;56.00;;;;;;4936056;29;20070;-74
2022/05/11 04:38:29;;;;;;;2.38;1.92;;;20.10;56.10;;;;;;4934623;29;20036;-74
2022/05/11 04:40:55;;;;;;;2.15;1.70;;;20.10;56.10;;;;;;4919048;29;20020;-74
2022/05/11 04:43:21;;;;;;;2.10;1.73;;;20.10;56.00;;;;;;4934527;29;20560;-74
2022/05/11 04:45:47;;;;;;;2.42;1.65;;;20.10;56.10;;;;;;4921950;29;20028;-73
2022/05/11 04:48:15;;;;;;;2.25;1.70;;;20.10;56.10;;;;;;4939322;29;20031;-74
2022/05/11 04:50:43;;;;;;;1.90;1.70;;;20.10;56.00;;;;;;4939431;29;20038;-74
2022/05/11 04:53:11;;;;;;;1.83;1.52;;;20.10;56.10;;;;;;4938236;29;20039;-75
2022/05/11 04:55:37;;;;;;;1.73;1.48;;;20.10;56.10;;;;;;4939044;29;20499;-75
2022/05/11 04:58:04;;;;;;;2.05;1.63;;;20.00;56.00;;;;;;4906587;29;20043;-75
2022/05/11 05:00:31;;;;;;;2.28;1.70;;;20.00;56.00;;;;;;4937858;29;20050;-74
2022/05/11 05:02:56;;;;;;;2.00;1.55;;;20.00;56.00;;;;;;4938282;29;20111;-75
2022/05/11 05:05:22;;;;;;;2.08;1.58;;;20.00;56.00;;;;;;4939356;29;20023;-73
2022/05/11 05:07:48;;;;;;;2.30;1.58;;;20.00;56.00;;;;;;4906296;29;20404;-74
2022/05/11 05:10:15;;;;;;;1.95;1.50;;;20.00;56.00;;;;;;4937523;29;20380;-75
2022/05/11 05:12:42;;;;;;;1.88;1.35;;;20.00;56.00;;;;;;4953413;29;20502;-75
2022/05/11 05:15:12;;;;;;;1.98;1.70;;;20.00;56.00;;;;;;4937522;29;20059;-75
2022/05/11 05:17:38;;;;;;;1.65;1.35;;;20.00;55.90;;;;;;4938670;29;20090;-75
2022/05/11 05:20:07;;;;;;;1.50;1.40;;;20.00;56.00;;;;;;4938454;29;20580;-76
2022/05/11 05:22:33;;;;;;;1.55;1.40;;;20.00;56.00;;;;;;4921727;29;20035;-75
2022/05/11 05:24:59;;;;;;;1.48;1.38;;;20.00;56.00;;;;;;4938377;29;20031;-75
2022/05/11 05:27:25;;;;;;;2.00;1.60;;;20.00;56.00;;;;;;4937287;29;20039;-74
2022/05/11 05:32:37;;;;;;;1.97;1.60;;;20.00;56.00;;;;;;4937164;29;20046;-75
2022/05/11 05:35:07;;;;;;;1.33;1.23;;;19.90;55.90;;;;;;4921434;29;20307;-75
2022/05/11 05:37:33;;;;;;;2.08;1.55;;;19.90;56.00;;;;;;4937366;29;20126;-74
2022/05/11 05:40:01;;;;;;;1.58;1.33;;;19.90;56.00;;;;;;4921805;29;20039;-76
2022/05/11 05:42:28;;;;;;;1.63;1.40;;;19.90;56.00;;;;;;4937334;29;20031;-81
2022/05/11 05:44:54;;;;;;;1.60;1.48;;;19.90;56.00;;;;;;4938528;29;20034;-75
2022/05/11 05:47:20;;;;;;;2.38;1.60;;;19.90;56.00;;;;;;4922125;29;20024;-74
2022/05/11 05:49:46;;;;;;;2.30;1.48;;;19.90;56.00;;;;;;4921415;29;20372;-75
2022/05/11 05:52:20;;;;;;;2.22;1.60;;;19.90;56.10;;;;;;4938463;29;20038;-76
2022/05/11 05:54:47;;;;;;;1.50;1.40;;;19.90;56.10;;;;;;4938080;29;20119;-74
2022/05/11 05:57:13;;;;;;;2.20;1.60;;;19.90;56.00;;;;;;4938118;29;20376;-75
2022/05/11 05:59:39;;;;;;;2.25;1.52;;;19.90;56.10;;;;;;4953006;29;20032;-74
2022/05/11 06:02:12;;;;;;;1.52;1.42;;;19.90;56.10;;;;;;4920966;29;20111;-75
2022/05/11 06:04:47;;;;;;;1.35;1.25;;;19.90;56.20;;;;;;4921352;29;20031;-74
2022/05/11 06:07:15;;;;;;;2.03;1.42;;;19.90;56.20;;;;;;4953005;29;20126;-76
2022/05/11 06:09:41;;;;;;;1.63;1.38;;;19.90;56.20;;;;;;4937763;29;20034;-74
2022/05/11 06:12:10;;;;;;;1.55;1.45;;;20.00;56.20;;;;;;4937730;29;20477;-73
2022/05/11 06:14:36;;;;;;;2.13;1.60;;;19.90;56.20;;;;;;4936764;29;20059;-73
2022/05/11 06:17:03;;;;;;;1.45;1.35;;;19.90;56.20;;;;;;4921332;29;20122;-74
2022/05/11 06:19:29;;;;;;;1.73;1.35;;;19.90;56.30;;;;;;4938092;29;20107;-75
2022/05/11 06:21:55;;;;;;;1.98;1.50;;;20.00;56.30;;;;;;4921821;29;20036;-74
2022/05/11 06:24:21;;;;;;;1.75;1.50;;;19.90;56.30;;;;;;4936998;29;20058;-74
2022/05/11 06:26:47;;;;;;;1.73;1.50;;;20.00;56.30;;;;;;4936700;29;20132;-74
2022/05/11 06:29:13;;;;;;;2.00;1.60;;;20.00;56.30;;;;;;4920935;29;20484;-73
2022/05/11 06:31:38;;;;;;;1.40;1.30;;;20.00;56.30;;;;;;4937487;29;20043;-73
2022/05/11 06:34:05;;;;;;;1.80;1.60;;;20.00;56.30;;;;;;4920539;29;20024;-77
2022/05/11 06:36:31;;;;;;;1.50;1.40;;;20.00;56.30;;;;;;4937321;29;20044;-75
2022/05/11 06:38:57;;;;;;;1.40;1.30;;;20.00;56.30;;;;;;4920276;29;20373;-74
2022/05/11 06:41:26;;;;;;;1.30;1.20;;;20.00;56.30;;;;;;4921199;29;20456;-73
2022/05/11 06:43:53;;;;;;;2.35;1.42;;;20.00;56.30;;;;;;4937843;29;20147;-74
2022/05/11 06:46:19;;;;;;;1.73;1.50;;;20.00;56.30;;;;;;4937025;29;20472;-74
2022/05/11 06:48:48;;;;;;;1.50;1.40;;;20.10;56.40;;;;;;4936961;29;20035;-77
2022/05/11 06:51:15;;;;;;;1.30;1.20;;;20.10;56.40;;;;;;4936113;29;20036;-76
2022/05/11 06:59:33;;;;;;;1.20;1.10;;;20.10;56.30;;;;;;4914850;29;20511;-75
2022/05/11 07:01:59;;;;;;;1.45;1.35;;;20.10;56.30;;;;;;4951610;29;20034;-76
2022/05/11 07:04:26;;;;;;;1.85;1.60;;;20.10;56.30;;;;;;4919863;29;20036;-75
2022/05/11 07:06:56;;;;;;;1.73;1.38;;;20.10;56.30;;;;;;4919818;29;20110;-76
2022/05/11 07:09:25;;;;;;;1.48;1.20;;;20.10;56.30;;;;;;4935503;29;20087;-76
2022/05/11 07:14:36;;;;;;;1.23;1.13;;;20.20;56.30;;;;;;4922270;29;20135;-75
2022/05/11 07:17:03;;;;;;;1.27;1.17;;;20.20;56.30;;;;;;4935202;29;20150;-76
2022/05/11 07:19:29;;;;;;;2.33;1.50;;;20.20;56.20;;;;;;4919801;29;20038;-75
2022/05/11 07:21:55;;;;;;;1.98;1.10;;;20.20;56.20;;;;;;4919674;29;20114;-76
2022/05/11 07:24:21;;;;;;;1.35;1.25;;;20.20;56.20;;;;;;4935335;29;20107;-77
2022/05/11 07:26:47;;;;;;;3.00;1.45;;;20.20;56.20;;;;;;4936378;29;20092;-76
2022/05/11 07:29:14;;;;;;;1.45;1.20;;;20.20;56.20;;;;;;4936306;29;20067;-75
2022/05/11 07:31:41;;;;;;;1.60;1.30;;;20.20;56.10;;;;;;4935248;29;20486;-76
2022/05/11 07:34:06;;;;;;;2.00;1.40;;;20.20;56.10;;;;;;4935386;29;20059;-75
2022/05/11 07:36:32;;;;;;;1.92;1.17;;;20.30;56.20;;;;;;4919678;29;20070;-76
2022/05/11 07:38:58;;;;;;;2.03;1.10;;;20.30;56.10;;;;;;4936559;29;20448;-75
2022/05/11 07:41:24;;;;;;;1.77;1.13;;;20.30;56.10;;;;;;4935242;29;20427;-77
2022/05/11 07:43:50;;;;;;;2.97;1.40;;;20.30;56.10;;;;;;4919550;29;20067;-77
2022/05/11 07:46:16;;;;;;;1.67;1.25;;;20.30;56.10;;;;;;4935268;29;20031;-76
2022/05/11 07:48:42;;;;;;;1.25;1.10;;;20.40;56.10;;;;;;4919418;29;20474;-76
2022/05/11 07:51:08;;;;;;;2.63;1.35;;;20.40;56.10;;;;;;4935655;29;20028;-76
2022/05/11 07:53:34;;;;;;;1.45;1.15;;;20.40;56.00;;;;;;4935019;29;20064;-76
2022/05/11 08:01:29;;;;;;;2.10;1.20;;;20.50;56.00;;;;;;4936075;29;20039;-75
2022/05/11 08:03:55;;;;;;;2.13;1.50;;;20.60;56.00;;;;;;4919546;29;20023;-76
2022/05/11 08:06:21;;;;;;;1.40;1.10;;;20.60;56.00;;;;;;4919301;29;20095;-77
2022/05/11 08:08:47;;;;;;;2.20;1.23;;;20.60;56.00;;;;;;4919242;29;20039;-78
2022/05/11 08:11:13;;;;;;;2.25;1.05;;;20.70;56.00;;;;;;4935072;29;20072;-76
2022/05/11 08:13:39;;;;;;;1.98;1.10;;;20.70;56.00;;;;;;4918841;29;20032;-76
2022/05/11 08:16:05;;;;;;;1.20;1.02;;;20.80;56.00;;;;;;4919084;29;20392;-76
2022/05/11 08:18:31;;;;;;;1.42;1.10;;;20.80;56.00;;;;;;4919103;29;20048;-76
2022/05/11 08:20:57;;;;;;;1.20;1.10;;;20.80;55.90;;;;;;4918551;29;20131;-76
2022/05/11 08:23:23;;;;;;;1.15;1.05;;;20.90;55.90;;;;;;4934599;29;20024;-77
2022/05/11 08:25:51;;;;;;;1.55;1.00;;;21.00;56.00;;;;;;4935738;29;20373;-77
2022/05/11 08:28:20;;;;;;;1.40;1.00;;;21.00;55.90;;;;;;4935472;29;20548;-75
2022/05/11 08:33:37;;;;;;;1.73;1.05;;;21.00;55.90;;;;;;4934618;29;20385;-76
2022/05/11 08:36:09;;;;;;;1.95;1.00;;;21.10;55.90;;;;;;4936142;29;20035;-77
2022/05/11 08:38:39;;;;;;;1.27;1.05;;;21.10;55.80;;;;;;4935380;29;20119;-77
2022/05/11 08:41:14;;;;;;;2.30;1.25;;;21.10;55.80;;;;;;4918919;29;20412;-76
2022/05/11 08:43:42;;;;;;;1.58;1.13;;;21.20;55.80;;;;;;4935041;29;20043;-75
2022/05/11 08:46:16;;;;;;;1.05;0.90;;;21.20;55.70;;;;;;4935629;29;20039;-77
2022/05/11 08:49:07;;;;;;;1.00;0.90;;;21.30;55.70;;;;;;4935299;29;20078;-76
2022/05/11 08:51:51;;;;;;;1.58;1.10;;;21.30;55.70;;;;;;4936030;29;20034;-77
2022/05/11 08:54:54;;;;;;;1.70;1.10;;;21.40;55.60;;;;;;4918758;29;20032;-76
2022/05/11 08:57:26;;;;;;;1.23;0.82;;;21.40;55.60;;;;;;4913569;29;20134;-76
2022/05/11 08:59:57;;;;;;;1.70;0.90;;;21.50;55.60;;;;;;4918505;29;20031;-76
2022/05/11 09:02:28;;;;;;;1.08;0.80;;;21.50;55.50;;;;;;4950457;29;20042;-76
2022/05/11 09:04:58;;;;;;;1.10;0.85;;;21.50;55.50;;;;;;4918614;29;20344;-75
2022/05/11 09:07:24;;;;;;;1.13;0.90;;;21.60;55.40;;;;;;4935460;29;20034;-75
2022/05/11 09:09:54;;;;;;;1.83;1.10;;;21.70;55.50;;;;;;4918285;29;20043;-75
2022/05/11 09:12:20;;;;;;;1.33;0.82;;;21.70;55.40;;;;;;4934268;29;20423;-75
2022/05/11 09:14:56;;;;;;;1.33;0.90;;;21.80;55.40;;;;;;4934969;29;20059;-75
2022/05/11 09:17:43;;;;;;;1.05;0.80;;;21.90;55.40;;;;;;4934593;29;20063;-74
2022/05/11 09:20:13;;;;;;;1.40;0.93;;;21.90;55.40;;;;;;4933893;29;20051;-75
2022/05/11 09:22:42;;;;;;;1.27;0.90;;;22.00;55.30;;;;;;4935188;29;20103;-75
2022/05/11 09:25:20;;;;;;;1.40;0.93;;;22.10;55.30;;;;;;4935029;29;20028;-76
2022/05/11 09:27:47;;;;;;;1.23;1.08;;;22.10;55.30;;;;;;4935445;29;20047;-76
2022/05/11 09:30:22;;;;;;;1.08;0.80;;;22.20;55.20;;;;;;4934754;29;20069;-75
2022/05/11 09:32:52;;;;;;;1.38;0.95;;;22.20;55.10;;;;;;4938354;29;20050;-75
2022/05/11 09:35:25;;;;;;;1.15;0.80;;;22.30;55.00;;;;;;4921704;29;20032;-76
2022/05/11 09:38:14;;;;;;;0.95;0.70;;;22.40;55.10;;;;;;4953196;29;20510;-76
2022/05/11 09:40:59;;;;;;;0.95;0.90;;;22.40;55.00;;;;;;4938127;29;20461;-76
2022/05/11 09:43:35;;;;;;;0.88;0.88;;;22.50;55.00;;;;;;4953614;29;20042;-77
2022/05/11 09:46:22;;;;;;;1.63;0.80;;;22.60;55.00;;;;;;4938660;29;20039;-75
2022/05/11 09:49:01;;;;;;;1.20;0.80;;;22.60;54.90;;;;;;4938147;29;20038;-75
2022/05/11 09:51:44;;;;;;;1.55;0.80;;;22.80;54.90;;;;;;4953286;29;20028;-76
2022/05/11 09:54:33;;;;;;;1.25;0.90;;;22.80;54.90;;;;;;4938559;29;20036;-76
2022/05/11 09:57:00;;;;;;;1.02;0.80;;;22.90;54.90;;;;;;4937562;29;20024;-75
2022/05/11 09:59:51;;;;;;;1.10;0.80;;;23.00;54.80;;;;;;4936611;29;20067;-74
2022/05/11 10:02:32;;;;;;;1.35;0.82;;;23.10;54.90;;;;;;4929613;29;20106;-75
2022/05/11 10:05:01;;;;;;;1.25;0.77;;;23.10;54.70;;;;;;4937833;29;20063;-76
2022/05/11 10:07:37;;;;;;;1.50;0.90;;;23.20;54.70;;;;;;4937412;29;20028;-75
2022/05/11 10:10:12;;;;;;;2.67;1.20;;;23.30;54.70;;;;;;4937847;29;20028;-75
2022/05/11 10:12:39;;;;;;;1.33;0.82;;;23.40;54.60;;;;;;4920564;29;20038;-76
2022/05/11 10:24:29;;;;;;;1.50;0.98;;;23.70;54.40;;;;;;4936330;29;20035;-77
2022/05/11 10:27:09;;;;;;;2.60;1.20;;;23.80;54.50;;;;;;4909830;29;20043;-76
2022/05/11 10:30:02;;;;;;;1.58;0.90;;;23.90;54.40;;;;;;4937678;29;20032;-75
2022/05/11 10:32:57;;;;;;;0.70;0.70;;;24.00;54.40;;;;;;4920581;29;20028;-74
2022/05/11 10:35:50;;;;;;;1.83;1.00;;;24.00;55.00;;;;;;4936234;29;20023;-74
2022/05/11 10:38:26;;;;;;;2.08;1.20;;;24.10;54.30;;;;;;4936014;29;20040;-76
2022/05/11 10:41:03;;;;;;;1.02;0.93;;;24.20;54.30;;;;;;4938189;29;20038;-76
2022/05/11 10:43:55;;;;;;;2.05;1.10;;;24.30;54.20;;;;;;4920442;29;20039;-75
2022/05/11 10:46:31;;;;;;;1.92;1.20;;;24.40;54.30;;;;;;4952867;29;20525;-76
2022/05/11 10:49:25;;;;;;;1.10;1.00;;;24.40;54.10;;;;;;4952119;29;20035;-76
2022/05/11 10:52:06;;;;;;;1.03;0.70;;;24.50;54.20;;;;;;4936226;29;20054;-76
2022/05/11 10:55:08;;;;;;;1.13;1.00;;;24.60;54.00;;;;;;4920903;29;20339;-76
2022/05/11 10:57:54;;;;;;;1.85;1.10;;;24.70;54.10;;;;;;4936161;29;20476;-76
2022/05/11 11:00:22;;;;;;;1.70;0.90;;;24.80;53.90;;;;;;4937351;29;20024;-76
2022/05/11 11:03:12;;;;;;;1.70;0.90;;;24.80;53.80;;;;;;4936017;29;20034;-77
2022/05/11 11:09:06;;;;;;;2.22;0.88;;;25.00;53.90;;;;;;4937387;29;20086;-77
2022/05/11 11:11:36;;;;;;;0.90;0.85;;;25.10;53.80;;;;;;4937684;29;20115;-76
2022/05/11 11:14:08;;;;;;;2.28;1.00;;;25.10;53.90;;;;;;4935957;29;20428;-76
2022/05/11 11:16:36;;;;;;;1.63;0.90;;;25.10;53.90;;;;;;4936347;29;20052;-77
2022/05/11 11:19:06;;;;;;;1.20;1.00;;;25.20;53.90;;;;;;4936478;29;20490;-77
2022/05/11 11:21:33;;;;;;;1.80;1.00;;;25.30;53.90;;;;;;4936996;29;20074;-75
2022/05/11 11:24:23;;;;;;;2.53;1.00;;;25.30;53.90;;;;;;4920238;29;20039;-75
2022/05/11 11:27:13;;;;;;;1.40;1.02;;;25.30;54.10;;;;;;4937234;29;20114;-76
2022/05/11 11:30:07;;;;;;;1.85;1.00;;;25.40;54.10;;;;;;4930930;29;20027;-76
2022/05/11 11:32:53;;;;;;;2.30;0.90;;;25.40;54.20;;;;;;4936787;29;20115;-76
2022/05/11 11:35:22;;;;;;;1.88;0.88;;;25.40;54.10;;;;;;4935201;29;20091;-77
2022/05/11 11:37:59;;;;;;;0.82;0.80;;;25.50;54.30;;;;;;4936259;29;20043;-76
2022/05/11 11:40:27;;;;;;;2.17;1.00;;;25.50;54.40;;;;;;4936790;29;20510;-76
2022/05/11 11:42:53;;;;;;;1.48;1.00;;;25.60;54.50;;;;;;4936259;29;20038;-76
2022/05/11 11:45:25;;;;;;;2.00;0.95;;;25.60;54.50;;;;;;4935105;29;20106;-76
2022/05/11 11:48:15;;;;;;;1.35;0.70;;;25.60;54.60;;;;;;4919626;29;20134;-76
2022/05/11 11:50:55;;;;;;;2.33;0.90;;;25.60;55.30;;;;;;4936548;29;20038;-77
2022/05/11 11:53:33;;;;;;;2.03;1.10;;;25.70;54.70;;;;;;4936230;29;20099;-78
2022/05/11 11:56:23;;;;;;;1.05;0.80;;;25.70;54.80;;;;;;4935315;29;20125;-76
2022/05/11 11:59:08;;;;;;;1.67;0.80;;;25.70;54.90;;;;;;4935530;29;20086;-76
2022/05/11 12:01:56;;;;;;;0.90;0.77;;;25.70;54.90;;;;;;4936199;29;20036;-77
2022/05/11 12:04:34;;;;;;;1.35;0.90;;;25.70;54.90;;;;;;4934985;29;20036;-75
2022/05/11 12:15:40;;;;;;;1.13;0.90;;;25.80;55.00;;;;;;4934109;29;20441;-75
2022/05/11 12:18:23;;;;;;;0.88;0.80;;;25.80;55.00;;;;;;4934657;29;20035;-75
2022/05/11 12:20:49;;;;;;;2.40;0.80;;;25.80;55.10;;;;;;4950633;29;20119;-76
2022/05/11 12:23:22;;;;;;;1.42;0.93;;;25.80;55.00;;;;;;4918475;29;20106;-76
2022/05/11 12:25:56;;;;;;;0.93;0.73;;;25.90;55.10;;;;;;4950143;29;20036;-76
2022/05/11 12:28:33;;;;;;;0.90;0.70;;;25.80;55.00;;;;;;4934873;29;20094;-75
2022/05/11 12:31:01;;;;;;;0.75;0.75;;;25.90;55.10;;;;;;4935171;29;20036;-76
2022/05/11 12:33:33;;;;;;;0.75;0.70;;;25.90;55.00;;;;;;4934261;29;20047;-75
2022/05/11 12:35:59;;;;;;;0.70;0.70;;;25.90;55.10;;;;;;4935341;29;20036;-76
2022/05/11 12:38:40;;;;;;;1.17;0.90;;;25.90;55.00;;;;;;4935292;29;20143;-77
2022/05/11 12:41:18;;;;;;;0.70;0.70;;;25.90;55.10;;;;;;4918753;29;20062;-76
2022/05/11 12:44:04;;;;;;;1.08;0.70;;;25.90;55.00;;;;;;4934149;29;20481;-75
2022/05/11 12:46:33;;;;;;;0.75;0.75;;;25.90;55.10;;;;;;4935798;29;20023;-75
2022/05/11 12:49:01;;;;;;;1.02;0.82;;;25.90;55.00;;;;;;4935561;29;20413;-76
2022/05/11 12:51:40;;;;;;;1.92;0.93;;;25.90;55.00;;;;;;4950260;29;20031;-75
2022/05/11 12:54:09;;;;;;;1.25;0.88;;;25.90;54.90;;;;;;4935580;29;20036;-75
2022/05/11 12:56:41;;;;;;;1.90;1.02;;;25.90;54.90;;;;;;4934470;29;20036;-76
2022/05/11 12:59:19;;;;;;;1.60;1.10;;;25.90;54.80;;;;;;4934423;29;20044;-75
2022/05/11 13:01:45;;;;;;;1.58;0.90;;;25.90;54.80;;;;;;4949888;29;20028;-75
2022/05/11 13:04:23;;;;;;;1.50;0.80;;;26.00;54.80;;;;;;4934012;29;20353;-75
2022/05/11 13:06:58;;;;;;;1.70;0.70;;;26.00;54.80;;;;;;4937584;29;20034;-76
2022/05/11 13:09:38;;;;;;;1.05;0.80;;;26.00;54.80;;;;;;4939382;29;20043;-76
2022/05/11 13:12:06;;;;;;;1.60;0.82;;;26.00;54.80;;;;;;4937752;29;20035;-76
2022/05/11 13:14:35;;;;;;;1.95;0.80;;;26.00;54.70;;;;;;4938616;29;20028;-76
2022/05/11 13:17:05;;;;;;;2.25;1.10;;;26.00;54.70;;;;;;4939639;29;20126;-77
2022/05/11 13:19:34;;;;;;;1.30;1.00;;;26.00;54.70;;;;;;4938711;29;20354;-76
2022/05/11 13:22:03;;;;;;;1.70;1.00;;;26.10;54.70;;;;;;4937783;29;20028;-76
2022/05/11 13:24:49;;;;;;;1.60;0.93;;;26.00;54.60;;;;;;4922516;29;20039;-75
2022/05/11 13:27:24;;;;;;;1.25;0.90;;;26.10;54.70;;;;;;4938628;29;20143;-76
2022/05/11 13:30:00;;;;;;;1.60;0.90;;;26.10;54.70;;;;;;4938132;29;20028;-76
2022/05/11 13:32:26;;;;;;;1.00;0.80;;;26.10;54.60;;;;;;4923411;29;20032;-77
2022/05/11 13:35:11;;;;;;;1.40;1.02;;;26.10;54.60;;;;;;4937382;29;20135;-76
2022/05/11 13:37:37;;;;;;;0.95;0.90;;;26.10;54.60;;;;;;4937960;29;20043;-77
2022/05/11 13:40:04;;;;;;;1.67;1.10;;;26.10;54.50;;;;;;4937487;29;20027;-77
2022/05/11 13:42:31;;;;;;;1.25;1.00;;;26.10;54.40;;;;;;4921581;29;20032;-76
2022/05/11 13:45:04;;;;;;;2.28;1.15;;;26.10;54.40;;;;;;4937014;29;20461;-74
2022/05/11 13:50:27;;;;;;;2.35;1.08;;;26.10;54.40;;;;;;4937774;29;20123;-76
2022/05/11 13:53:00;;;;;;;0.80;0.80;;;26.10;54.30;;;;;;4937185;29;20035;-77
2022/05/11 13:55:30;;;;;;;2.28;0.93;;;26.10;54.30;;;;;;4937427;29;20035;-76